To NAV CANADA Home Page Login to a new session Search on AWWS site Feedback and Comments Disclaimer Vers la page française équivalente Tips FAQ What's new on the site To the Forecasts and Observations / NOTAM section To "File a Flight Plan" website Publications and other links Update of the User's profile FIC Telephone Numbers My Weather Data Folder Route Weather Data Regional Weather Data Local Weather Data To the Forecasts and Observations / NOTAM section
Request Generated 09/05/2015 at 10:11:49 UTC . Weather information available at that time is displayed.

METAR/TAF

QUEBEC/JEAN LESAGE INTL/QC    

METAR CYQB 051000Z 34005KT 30SM FEW240 12/10 A3026 RMK CI2 SLP247=
METAR CYQB 050900Z 33003KT 15SM SKC 12/10 A3025 RMK SLP244=
METAR CYQB 050800Z 32003KT 15SM SKC 11/10 A3025 RMK SLP245=

TAF CYQB 050538Z 0506/0606 36003KT P6SM FEW240 PROB30 0506/0513 2SM
BR
FM051700 23008KT P6SM SKC
BECMG 0522/0524 22004KT
BECMG 0604/0606 VRB03KT
RMK NXT FCST BY 051200Z=
Your time UTC time
Weather data provided by Environment Canada and NAV CANADA